createdAt,value
2022-11-06T00:01:58.854Z,77.63
2022-11-06T00:04:32.685Z,77.37
2022-11-06T00:06:59.535Z,77.80
2022-11-06T00:09:27.456Z,77.91
2022-11-06T00:11:57.906Z,77.67
2022-11-06T00:14:26.160Z,77.51
2022-11-06T00:16:54.188Z,77.30
2022-11-06T00:19:22.059Z,77.71
2022-11-06T00:21:52.425Z,77.48
2022-11-06T00:24:20.486Z,77.94
2022-11-06T00:26:53.187Z,77.87
2022-11-06T00:29:23.911Z,77.83
2022-11-06T00:31:51.942Z,77.70
2022-11-06T00:34:19.775Z,77.65
2022-11-06T00:36:50.458Z,77.54
2022-11-06T00:39:18.366Z,77.58
2022-11-06T00:41:46.233Z,77.65
2022-11-06T00:44:14.075Z,77.64
2022-11-06T00:46:43.393Z,77.51
2022-11-06T00:49:11.248Z,78.52
2022-11-06T00:51:40.324Z,77.44
2022-11-06T00:54:10.984Z,78.41
2022-11-06T00:56:39.039Z,77.84
2022-11-06T00:59:08.563Z,78.02
2022-11-06T01:01:39.049Z,77.64
2022-11-06T01:04:11.981Z,77.82
2022-11-06T01:06:42.207Z,78.08
2022-11-06T01:09:12.592Z,78.09
2022-11-06T01:12:10.937Z,78.54
2022-11-06T01:14:30.907Z,77.21
2022-11-06T01:16:58.698Z,77.74
2022-11-06T01:19:27.916Z,77.75
2022-11-06T01:21:55.798Z,77.57
2022-11-06T01:24:25.571Z,77.81
2022-11-06T01:27:24.362Z,77.72
2022-11-06T01:29:41.895Z,77.98
2022-11-06T01:32:09.738Z,77.79
2022-11-06T01:34:40.430Z,78.22
2022-11-06T01:37:13.204Z,77.79
2022-11-06T01:39:42.654Z,77.58
2022-11-06T01:42:12.191Z,78.23
2022-11-06T01:45:17.347Z,77.52
2022-11-06T01:47:45.819Z,77.86
2022-11-06T01:50:18.196Z,77.98
2022-11-06T01:52:48.529Z,77.78
2022-11-06T01:55:21.870Z,77.94
2022-11-06T01:57:50.191Z,77.66
2022-11-06T02:00:20.061Z,77.94
2022-11-06T02:02:48.537Z,78.24
2022-11-06T02:05:18.249Z,78.10
2022-11-06T02:07:46.867Z,78.31
2022-11-06T02:10:14.753Z,77.52
2022-11-06T02:12:59.753Z,78.24
2022-11-06T02:15:37.704Z,77.89
2022-11-06T02:18:19.784Z,77.93
2022-11-06T02:21:00.213Z,78.58
2022-11-06T02:23:46.543Z,78.82
2022-11-06T02:26:30.790Z,78.28
2022-11-06T02:29:05.384Z,78.37
2022-11-06T02:31:36.527Z,78.25
2022-11-06T02:34:07.511Z,77.62
2022-11-06T02:36:41.130Z,78.46
2022-11-06T02:39:13.635Z,78.60
2022-11-06T02:41:45.449Z,77.82
2022-11-06T02:44:20.686Z,77.93
2022-11-06T02:46:53.233Z,78.81
2022-11-06T02:49:27.197Z,78.39
2022-11-06T02:51:58.692Z,78.75
2022-11-06T02:54:30.146Z,77.86
2022-11-06T02:57:05.116Z,78.47
2022-11-06T02:59:45.457Z,78.30
2022-11-06T03:02:19.634Z,78.18
2022-11-06T03:04:55.227Z,78.10
2022-11-06T03:07:29.365Z,78.38
2022-11-06T03:09:58.053Z,78.83
2022-11-06T03:12:30.777Z,78.52
2022-11-06T03:15:07.586Z,78.74
2022-11-06T03:17:44.658Z,78.63
2022-11-06T03:20:22.537Z,78.99
2022-11-06T03:22:58.805Z,78.56
2022-11-06T03:25:30.189Z,78.02
2022-11-06T03:31:02.966Z,78.21
2022-11-06T03:33:38.086Z,78.09
2022-11-06T03:36:11.823Z,78.76
2022-11-06T03:38:44.739Z,78.95
2022-11-06T03:41:18.170Z,78.33
2022-11-06T03:46:49.369Z,78.75
2022-11-06T03:49:22.840Z,79.03
2022-11-06T03:51:54.937Z,78.83
2022-11-06T03:54:32.489Z,78.02
2022-11-06T03:57:03.801Z,78.71
2022-11-06T03:59:37.110Z,79.11
2022-11-06T04:02:06.794Z,78.77
2022-11-06T04:04:41.788Z,78.79
2022-11-06T04:07:13.387Z,78.61
2022-11-06T04:10:03.055Z,78.14
2022-11-06T04:12:51.510Z,78.35
2022-11-06T04:15:21.868Z,79.04
2022-11-06T04:17:51.247Z,78.19
2022-11-06T04:20:35.731Z,79.29
2022-11-06T04:23:13.515Z,78.59
2022-11-06T04:26:14.742Z,78.72
2022-11-06T04:28:49.403Z,78.72
2022-11-06T04:34:28.826Z,79.07
2022-11-06T04:37:08.120Z,78.86
2022-11-06T04:39:45.541Z,79.44
2022-11-06T04:42:23.484Z,79.50
2022-11-06T04:44:55.488Z,79.38
2022-11-06T04:47:25.300Z,78.61
2022-11-06T04:50:00.101Z,78.47
2022-11-06T04:52:29.848Z,79.57
2022-11-06T04:54:59.406Z,78.76
2022-11-06T04:57:27.760Z,79.12
2022-11-06T04:59:56.949Z,79.24
2022-11-06T05:02:25.198Z,79.06
2022-11-06T05:04:54.513Z,78.82
2022-11-06T05:07:22.365Z,79.25
2022-11-06T05:09:50.353Z,79.35
2022-11-06T05:12:18.209Z,78.99
2022-11-06T05:14:46.246Z,79.30
2022-11-06T05:17:14.094Z,78.93
2022-11-06T05:19:41.948Z,79.19
2022-11-06T05:22:29.238Z,79.63
2022-11-06T05:24:57.121Z,79.19
2022-11-06T05:27:24.948Z,79.93
2022-11-06T05:29:52.789Z,79.76
2022-11-06T05:32:20.683Z,78.95
2022-11-06T05:34:48.533Z,79.07
2022-11-06T05:37:17.779Z,78.99
2022-11-06T05:39:45.626Z,79.68
2022-11-06T05:42:13.438Z,79.63
2022-11-06T05:44:41.307Z,79.20
2022-11-06T05:47:09.219Z,79.35
2022-11-06T05:49:37.061Z,79.17
2022-11-06T05:52:05.299Z,79.25
2022-11-06T05:54:34.761Z,79.44
2022-11-06T05:57:02.599Z,79.98
2022-11-06T05:59:30.458Z,79.45
2022-11-06T06:01:59.547Z,79.12
2022-11-06T06:04:27.511Z,79.61
2022-11-06T06:06:55.532Z,79.76
2022-11-06T06:09:23.466Z,79.15
2022-11-06T06:11:54.081Z,79.52
2022-11-06T06:14:22.385Z,79.81
2022-11-06T06:16:50.216Z,79.78
2022-11-06T06:19:18.327Z,79.86
2022-11-06T06:21:46.135Z,79.61
2022-11-06T06:24:14.017Z,79.96
2022-11-06T06:26:41.920Z,79.79
2022-11-06T06:29:11.159Z,79.16
2022-11-06T06:31:39.242Z,79.68
2022-11-06T06:34:07.056Z,79.77
2022-11-06T06:36:34.988Z,80.02
2022-11-06T06:39:02.937Z,79.35
2022-11-06T06:41:30.726Z,79.69
2022-11-06T06:43:58.610Z,79.61
2022-11-06T06:46:28.303Z,79.47
2022-11-06T06:48:56.187Z,79.13
2022-11-06T06:51:24.391Z,79.98
2022-11-06T06:53:52.984Z,79.96
2022-11-06T06:56:21.219Z,79.40
2022-11-06T06:58:49.176Z,79.63
2022-11-06T07:01:17.062Z,79.14
2022-11-06T07:03:46.296Z,80.03
2022-11-06T07:06:14.278Z,79.28
2022-11-06T07:08:42.157Z,79.78
2022-11-06T07:11:12.125Z,79.43
2022-11-06T07:13:40.031Z,79.54
2022-11-06T07:16:10.729Z,80.07
2022-11-06T07:18:40.146Z,79.36
2022-11-06T07:21:11.789Z,79.25
2022-11-06T07:23:39.964Z,79.25
2022-11-06T07:26:07.924Z,79.86
2022-11-06T07:28:36.447Z,79.63
2022-11-06T07:31:07.063Z,80.12
2022-11-06T07:33:35.945Z,79.36
2022-11-06T07:36:05.285Z,79.83
2022-11-06T07:38:35.912Z,79.92
2022-11-06T07:41:05.341Z,79.27
2022-11-06T07:43:33.276Z,79.21
2022-11-06T07:46:02.071Z,79.55
2022-11-06T07:48:30.570Z,79.35
2022-11-06T07:50:59.557Z,79.59
2022-11-06T07:53:27.754Z,79.27
2022-11-06T07:55:57.978Z,79.43
2022-11-06T07:58:26.354Z,79.67
2022-11-06T08:00:56.584Z,79.80
2022-11-06T08:03:26.022Z,79.56
2022-11-06T08:05:53.891Z,79.76
2022-11-06T08:08:21.711Z,79.45
2022-11-06T08:10:51.799Z,79.45
2022-11-06T08:13:21.069Z,79.81
2022-11-06T08:15:48.964Z,79.76
2022-11-06T08:18:17.332Z,79.96
2022-11-06T08:20:45.310Z,79.67
2022-11-06T08:23:14.450Z,79.93
2022-11-06T08:25:42.531Z,79.43
2022-11-06T08:28:11.148Z,79.38
2022-11-06T08:30:43.388Z,79.35
2022-11-06T08:33:12.547Z,79.55
2022-11-06T08:35:40.376Z,79.41
2022-11-06T08:38:08.262Z,79.60
2022-11-06T08:40:38.646Z,79.46
2022-11-06T08:43:09.497Z,79.87
2022-11-06T08:45:39.387Z,79.55
2022-11-06T08:48:09.286Z,79.52
2022-11-06T08:50:38.555Z,79.76
2022-11-06T08:53:07.694Z,79.63
2022-11-06T08:55:37.385Z,79.58
2022-11-06T08:58:05.645Z,79.53
2022-11-06T09:00:33.769Z,79.58
2022-11-06T09:03:03.348Z,79.58
2022-11-06T09:05:32.845Z,79.59
2022-11-06T09:08:01.192Z,79.56
2022-11-06T09:10:29.555Z,79.55
2022-11-06T09:12:59.721Z,79.59
2022-11-06T09:15:27.716Z,79.41
2022-11-06T09:17:55.956Z,79.95
2022-11-06T09:20:25.603Z,79.52
2022-11-06T09:22:55.296Z,79.25
2022-11-06T09:25:23.270Z,79.50
2022-11-06T09:27:58.534Z,79.53
2022-11-06T09:30:29.046Z,79.63
2022-11-06T09:32:58.400Z,79.67
2022-11-06T09:35:28.782Z,79.53
2022-11-06T09:38:02.369Z,79.42
2022-11-06T09:40:33.933Z,79.32
2022-11-06T09:43:43.132Z,79.45
2022-11-06T09:46:19.898Z,79.42
2022-11-06T09:48:54.382Z,79.47
2022-11-06T09:51:34.228Z,79.49
2022-11-06T09:54:08.667Z,79.30
2022-11-06T09:56:40.177Z,79.51
2022-11-06T09:59:17.589Z,79.52
2022-11-06T10:01:49.912Z,79.27
2022-11-06T10:04:39.466Z,79.57
2022-11-06T10:07:20.103Z,79.28
2022-11-06T10:09:49.322Z,79.09
2022-11-06T10:12:26.257Z,79.22
2022-11-06T10:15:04.605Z,79.42
2022-11-06T10:17:45.777Z,79.53
2022-11-06T10:20:25.439Z,79.09
2022-11-06T10:23:05.676Z,79.38
2022-11-06T10:25:52.033Z,78.96
2022-11-06T10:28:50.565Z,79.08
2022-11-06T10:31:27.713Z,78.89
2022-11-06T10:34:00.588Z,79.08
2022-11-06T10:36:32.730Z,79.09
2022-11-06T10:39:02.504Z,79.32
2022-11-06T10:41:35.586Z,78.73
2022-11-06T10:44:07.999Z,78.95
2022-11-06T10:46:38.247Z,78.92
2022-11-06T10:49:13.905Z,78.86
2022-11-06T10:51:56.558Z,79.24
2022-11-06T10:54:35.698Z,78.93
2022-11-06T10:57:24.516Z,78.91
2022-11-06T10:59:52.698Z,78.60
2022-11-06T11:02:28.797Z,78.81
2022-11-06T11:04:58.380Z,78.66
2022-11-06T11:07:31.513Z,78.94
2022-11-06T11:09:59.556Z,78.46
2022-11-06T11:12:30.465Z,78.75
2022-11-06T11:15:14.034Z,78.83
2022-11-06T11:17:42.986Z,78.55
2022-11-06T11:20:33.744Z,78.57
2022-11-06T11:23:16.961Z,78.36
2022-11-06T11:25:47.470Z,78.56
2022-11-06T11:28:27.810Z,78.25
2022-11-06T11:31:05.561Z,78.58
2022-11-06T11:33:34.473Z,78.61
2022-11-06T11:36:04.690Z,78.55
2022-11-06T11:38:36.310Z,78.06
2022-11-06T11:41:08.958Z,78.29
2022-11-06T11:43:38.227Z,78.14
2022-11-06T11:46:23.990Z,78.04
2022-11-06T11:48:53.295Z,78.27
2022-11-06T11:51:36.994Z,78.02
2022-11-06T11:54:08.167Z,78.09
2022-11-06T11:57:03.652Z,78.12
2022-11-06T11:59:39.253Z,78.07
2022-11-06T12:02:16.031Z,77.91
2022-11-06T12:04:46.334Z,77.80
2022-11-06T12:07:23.471Z,77.88
2022-11-06T12:09:51.732Z,77.77
2022-11-06T12:12:23.584Z,77.69
2022-11-06T12:15:08.063Z,77.79
2022-11-06T12:17:40.265Z,77.53
2022-11-06T12:20:15.224Z,77.50
2022-11-06T12:22:46.621Z,77.54
2022-11-06T12:25:20.845Z,77.53
2022-11-06T12:27:53.919Z,77.44
2022-11-06T12:30:24.531Z,77.40
2022-11-06T12:33:04.327Z,77.34
2022-11-06T12:35:34.404Z,77.25
2022-11-06T12:38:12.126Z,77.36
2022-11-06T12:40:42.773Z,77.28
2022-11-06T12:43:17.205Z,77.20
2022-11-06T12:45:59.057Z,77.06
2022-11-06T12:49:06.443Z,77.01
2022-11-06T12:51:45.613Z,76.80
2022-11-06T12:54:25.705Z,76.96
2022-11-06T12:57:00.837Z,76.71
2022-11-06T12:59:44.795Z,76.94
2022-11-06T13:02:31.521Z,76.79
2022-11-06T13:05:07.881Z,76.89
2022-11-06T13:07:45.840Z,76.55
2022-11-06T13:10:27.656Z,76.76
2022-11-06T13:13:15.174Z,76.50
2022-11-06T13:15:53.967Z,76.51
2022-11-06T13:18:26.927Z,76.14
2022-11-06T13:21:00.559Z,76.43
2022-11-06T13:23:32.183Z,76.35
2022-11-06T13:26:07.974Z,76.19
2022-11-06T13:28:40.961Z,76.27
2022-11-06T13:31:13.175Z,76.20
2022-11-06T13:33:47.546Z,76.12
2022-11-06T13:36:16.358Z,76.19
2022-11-06T13:38:52.671Z,76.20
2022-11-06T13:41:24.797Z,76.38
2022-11-06T13:43:58.156Z,75.94
2022-11-06T13:46:34.118Z,75.82
2022-11-06T13:49:16.640Z,75.38
2022-11-06T13:51:51.819Z,75.54
2022-11-06T13:54:27.471Z,75.66
2022-11-06T13:57:34.247Z,75.74
2022-11-06T14:00:21.695Z,75.85
2022-11-06T14:03:42.201Z,75.63
2022-11-06T14:06:17.691Z,75.34
2022-11-06T14:08:48.789Z,75.42
2022-11-06T14:11:18.947Z,75.45
2022-11-06T14:13:59.793Z,75.13
2022-11-06T14:16:30.834Z,75.17
2022-11-06T14:19:08.232Z,75.38
2022-11-06T14:21:50.051Z,75.30
2022-11-06T14:24:33.051Z,75.36
2022-11-06T14:27:03.484Z,74.83
2022-11-06T14:30:01.992Z,74.94
2022-11-06T14:32:57.342Z,74.93
2022-11-06T14:35:52.419Z,74.91
2022-11-06T14:38:38.543Z,74.80
2022-11-06T14:41:44.891Z,74.89
2022-11-06T14:44:22.120Z,74.92
2022-11-06T14:46:51.709Z,74.53
2022-11-06T14:49:28.961Z,74.71
2022-11-06T14:52:02.927Z,74.32
2022-11-06T14:54:34.894Z,74.63
2022-11-06T14:57:03.187Z,74.72
2022-11-06T14:59:34.977Z,74.59
2022-11-06T15:02:13.246Z,74.46
2022-11-06T15:04:46.532Z,74.28
2022-11-06T15:08:03.326Z,74.17
2022-11-06T15:10:52.048Z,74.25
2022-11-06T15:13:30.418Z,74.55
2022-11-06T15:16:04.551Z,74.05
2022-11-06T15:18:36.598Z,74.60
2022-11-06T15:21:08.637Z,74.53
2022-11-06T15:23:42.206Z,74.36
2022-11-06T15:26:23.790Z,74.45
2022-11-06T15:29:04.053Z,74.02
2022-11-06T15:31:34.267Z,74.17
2022-11-06T15:34:05.823Z,74.02
2022-11-06T15:36:40.828Z,74.23
2022-11-06T15:39:32.641Z,74.19
2022-11-06T15:42:09.599Z,73.91
2022-11-06T15:44:41.458Z,74.03
2022-11-06T15:47:21.540Z,73.92
2022-11-06T15:50:04.635Z,74.23
2022-11-06T15:52:32.589Z,73.97
2022-11-06T15:55:00.430Z,73.84
2022-11-06T15:57:30.908Z,74.09
2022-11-06T16:00:09.229Z,73.91
2022-11-06T16:02:49.091Z,73.99
2022-11-06T16:05:18.161Z,73.90
2022-11-06T16:07:48.350Z,73.87
2022-11-06T16:10:17.161Z,73.58
2022-11-06T16:12:47.620Z,73.56
2022-11-06T16:15:51.426Z,73.83
2022-11-06T16:18:24.021Z,73.86
2022-11-06T16:20:56.476Z,73.93
2022-11-06T16:23:37.635Z,73.75
2022-11-06T16:26:09.889Z,73.83
2022-11-06T16:28:45.347Z,73.78
2022-11-06T16:31:17.095Z,73.73
2022-11-06T16:33:54.737Z,73.57
2022-11-06T16:36:22.776Z,73.50
2022-11-06T16:38:50.850Z,73.60
2022-11-06T16:41:40.455Z,73.54
2022-11-06T16:44:30.920Z,73.36
2022-11-06T16:47:15.146Z,73.62
2022-11-06T16:49:47.641Z,73.13
2022-11-06T16:52:22.809Z,73.22
2022-11-06T16:54:52.572Z,73.33
2022-11-06T16:57:23.313Z,73.28
2022-11-06T17:00:02.409Z,73.35
2022-11-06T17:02:33.771Z,73.23
2022-11-06T17:05:16.930Z,73.37
2022-11-06T17:07:46.302Z,73.05
2022-11-06T17:10:39.693Z,73.65
2022-11-06T17:13:19.070Z,73.52
2022-11-06T17:15:50.087Z,73.19
2022-11-06T17:18:21.404Z,73.31
2022-11-06T17:20:55.323Z,73.24
2022-11-06T17:23:24.669Z,73.14
2022-11-06T17:25:55.062Z,73.16
2022-11-06T17:28:23.008Z,73.13
2022-11-06T17:30:52.503Z,73.14
2022-11-06T17:33:20.359Z,73.03
2022-11-06T17:35:49.365Z,73.42
2022-11-06T17:38:18.421Z,72.80
2022-11-06T17:40:47.803Z,73.11
2022-11-06T17:43:16.151Z,73.11
2022-11-06T17:45:47.901Z,72.89
2022-11-06T17:48:17.572Z,73.01
2022-11-06T17:51:02.878Z,72.97
2022-11-06T17:53:30.916Z,72.75
2022-11-06T17:55:58.755Z,72.94
2022-11-06T17:58:27.482Z,72.79
2022-11-06T18:00:56.827Z,72.96
2022-11-06T18:03:26.117Z,72.94
2022-11-06T18:05:54.245Z,72.99
2022-11-06T18:08:22.160Z,72.82
2022-11-06T18:10:55.101Z,72.95
2022-11-06T18:13:23.135Z,72.91
2022-11-06T18:15:52.550Z,73.08
2022-11-06T18:18:21.169Z,73.07
2022-11-06T18:20:50.446Z,72.85
2022-11-06T18:23:18.829Z,73.06
2022-11-06T18:25:54.655Z,72.77
2022-11-06T18:28:22.602Z,72.88
2022-11-06T18:30:51.378Z,72.83
2022-11-06T18:33:19.446Z,72.55
2022-11-06T18:35:47.490Z,72.90
2022-11-06T18:38:17.392Z,72.79
2022-11-06T18:40:51.223Z,72.88
2022-11-06T18:43:19.856Z,72.79
2022-11-06T18:45:47.723Z,72.96
2022-11-06T18:48:19.913Z,72.72
2022-11-06T18:50:49.626Z,72.72
2022-11-06T18:53:18.869Z,72.66
2022-11-06T18:55:47.114Z,72.77
2022-11-06T18:58:15.507Z,72.81
2022-11-06T19:00:44.192Z,72.82
2022-11-06T19:03:12.786Z,72.84
2022-11-06T19:05:47.408Z,72.65
2022-11-06T19:08:16.125Z,72.70
2022-11-06T19:10:46.165Z,72.79
2022-11-06T19:13:14.159Z,72.63
2022-11-06T19:15:42.865Z,72.69
2022-11-06T19:18:11.159Z,72.69
2022-11-06T19:20:40.786Z,72.79
2022-11-06T19:23:09.679Z,72.59
2022-11-06T19:25:40.917Z,72.64
2022-11-06T19:28:10.884Z,72.92
2022-11-06T19:30:39.537Z,72.90
2022-11-06T19:33:07.430Z,72.68
2022-11-06T19:35:35.487Z,72.78
2022-11-06T19:38:03.713Z,72.85
2022-11-06T19:40:31.621Z,72.96
2022-11-06T19:42:59.837Z,72.72
2022-11-06T19:45:29.354Z,72.71
2022-11-06T19:47:57.211Z,72.79
2022-11-06T19:50:53.668Z,72.71
2022-11-06T19:53:17.644Z,72.64
2022-11-06T19:55:45.936Z,72.78
2022-11-06T19:58:14.078Z,72.67
2022-11-06T20:00:43.467Z,72.54
2022-11-06T20:03:13.455Z,72.60
2022-11-06T20:05:42.179Z,72.74
2022-11-06T20:08:10.598Z,72.70
2022-11-06T20:10:38.487Z,72.53
2022-11-06T20:13:06.619Z,72.52
2022-11-06T20:15:37.423Z,72.85
2022-11-06T20:18:09.459Z,72.75
2022-11-06T20:20:37.432Z,73.02
2022-11-06T20:23:05.312Z,73.00
2022-11-06T20:25:33.476Z,72.60
2022-11-06T20:28:01.515Z,72.71
2022-11-06T20:30:29.771Z,72.86
2022-11-06T20:32:57.679Z,72.75
2022-11-06T20:35:26.968Z,73.11
2022-11-06T20:37:55.002Z,72.85
2022-11-06T20:40:23.021Z,73.22
2022-11-06T20:42:50.999Z,73.11
2022-11-06T20:45:19.572Z,72.81
2022-11-06T20:47:47.459Z,72.91
2022-11-06T20:50:15.286Z,73.25
2022-11-06T20:52:44.695Z,72.77
2022-11-06T20:55:15.144Z,73.25
2022-11-06T20:57:43.104Z,72.88
2022-11-06T21:00:12.707Z,73.02
2022-11-06T21:02:40.735Z,72.88
2022-11-06T21:05:09.377Z,73.13
2022-11-06T21:07:37.317Z,72.88
2022-11-06T21:10:07.346Z,72.87
2022-11-06T21:12:35.178Z,73.46
2022-11-06T21:15:03.098Z,73.27
2022-11-06T21:17:32.952Z,72.96
2022-11-06T21:20:01.253Z,73.20
2022-11-06T21:22:29.157Z,73.03
2022-11-06T21:24:57.387Z,73.13
2022-11-06T21:27:26.748Z,73.46
2022-11-06T21:29:55.861Z,73.31
2022-11-06T21:32:23.905Z,73.17
2022-11-06T21:34:51.705Z,73.07
2022-11-06T21:37:19.641Z,73.29
2022-11-06T21:39:47.875Z,73.23
2022-11-06T21:42:20.068Z,73.21
2022-11-06T21:44:49.294Z,73.37
2022-11-06T21:47:17.132Z,73.16
2022-11-06T21:49:53.831Z,73.31
2022-11-06T21:52:39.563Z,73.05
2022-11-06T21:55:26.404Z,73.28
2022-11-06T21:57:54.276Z,73.42
2022-11-06T22:00:23.521Z,73.44
2022-11-06T22:02:51.734Z,73.39
2022-11-06T22:05:20.091Z,73.44
2022-11-06T22:07:47.897Z,73.07
2022-11-06T22:10:16.099Z,73.38
2022-11-06T22:12:43.995Z,73.26
2022-11-06T22:15:12.019Z,73.08
2022-11-06T22:17:41.246Z,73.39
2022-11-06T22:20:09.936Z,73.30
2022-11-06T22:22:37.793Z,73.25
2022-11-06T22:25:06.363Z,73.59
2022-11-06T22:27:39.608Z,73.17
2022-11-06T22:30:09.932Z,73.71
2022-11-06T22:32:38.021Z,73.42
2022-11-06T22:35:07.780Z,73.42
2022-11-06T22:37:35.630Z,73.40
2022-11-06T22:40:03.635Z,73.70
2022-11-06T22:42:32.112Z,73.19
2022-11-06T22:45:00.174Z,73.40
2022-11-06T22:47:28.311Z,73.19
2022-11-06T22:49:56.210Z,73.27
2022-11-06T22:52:25.461Z,73.26
2022-11-06T22:54:53.290Z,73.68
2022-11-06T22:57:21.163Z,73.50
2022-11-06T22:59:49.019Z,73.48
2022-11-06T23:06:36.748Z,73.59
2022-11-06T23:09:04.749Z,73.37
2022-11-06T23:11:32.740Z,73.59
2022-11-06T23:14:06.112Z,73.23
2022-11-06T23:16:54.245Z,73.50
2022-11-06T23:19:22.116Z,73.50
2022-11-06T23:21:52.426Z,73.46
2022-11-06T23:24:45.437Z,73.34
2022-11-06T23:27:13.475Z,73.66
2022-11-06T23:29:41.525Z,73.53
2022-11-06T23:32:09.560Z,73.67
2022-11-06T23:34:37.462Z,73.62
2022-11-06T23:37:07.058Z,73.48
2022-11-06T23:39:34.937Z,73.60
2022-11-06T23:42:02.927Z,73.82
2022-11-06T23:44:48.072Z,73.44
2022-11-06T23:47:15.966Z,73.60
2022-11-06T23:49:43.786Z,73.52
2022-11-06T23:52:13.049Z,73.67
2022-11-06T23:54:40.861Z,73.63
2022-11-06T23:57:09.653Z,73.63
2022-11-06T23:59:37.740Z,73.70
